sensor_id;sensor_type;location;lat;lon;timestamp;temperature;humidity
23562;DHT22;11959;49.418;8.728;2024-03-23T00:56:15;10.30;99.90
23562;DHT22;11959;49.418;8.728;2024-03-23T00:58:41;10.20;99.90
23562;DHT22;11959;49.418;8.728;2024-03-23T01:01:06;10.20;99.90
23562;DHT22;11959;49.418;8.728;2024-03-23T01:03:32;10.20;99.90
23562;DHT22;11959;49.418;8.728;2024-03-23T01:06:01;10.20;99.90
23562;DHT22;11959;49.418;8.728;2024-03-23T01:08:28;10.10;99.90
23562;DHT22;11959;49.418;8.728;2024-03-23T01:10:55;10.10;99.90
23562;DHT22;11959;49.418;8.728;2024-03-23T01:13:21;10.10;99.90
23562;DHT22;11959;49.418;8.728;2024-03-23T01:15:51;10.10;99.90
23562;DHT22;11959;49.418;8.728;2024-03-23T01:18:17;10.10;99.90
23562;DHT22;11959;49.418;8.728;2024-03-23T01:20:43;10.10;99.90
23562;DHT22;11959;49.418;8.728;2024-03-23T01:23:09;10.10;99.90
23562;DHT22;11959;49.418;8.728;2024-03-23T01:25:35;10.10;99.90
23562;DHT22;11959;49.418;8.728;2024-03-23T01:28:00;10.10;99.90
23562;DHT22;11959;49.418;8.728;2024-03-23T01:30:26;10.10;99.90
23562;DHT22;11959;49.418;8.728;2024-03-23T01:32:51;10.10;99.90
23562;DHT22;11959;49.418;8.728;2024-03-23T01:35:17;10.10;99.90
23562;DHT22;11959;49.418;8.728;2024-03-23T01:37:42;10.10;99.90
23562;DHT22;11959;49.418;8.728;2024-03-23T01:40:08;10.10;99.90
23562;DHT22;11959;49.418;8.728;2024-03-23T01:42:34;10.20;99.90
23562;DHT22;11959;49.418;8.728;2024-03-23T01:45:00;10.10;99.90
23562;DHT22;11959;49.418;8.728;2024-03-23T01:47:25;10.20;99.90
23562;DHT22;11959;49.418;8.728;2024-03-23T01:49:51;10.20;99.90
23562;DHT22;11959;49.418;8.728;2024-03-23T01:52:17;10.20;99.90
23562;DHT22;11959;49.418;8.728;2024-03-23T01:54:43;10.10;99.90
23562;DHT22;11959;49.418;8.728;2024-03-23T01:57:10;10.20;99.90
23562;DHT22;11959;49.418;8.728;2024-03-23T01:59:36;10.10;99.90
23562;DHT22;11959;49.418;8.728;2024-03-23T02:02:01;10.20;99.90
23562;DHT22;11959;49.418;8.728;2024-03-23T02:04:27;10.20;99.90
23562;DHT22;11959;49.418;8.728;2024-03-23T02:06:53;10.10;99.90
23562;DHT22;11959;49.418;8.728;2024-03-23T02:09:18;10.20;99.90
23562;DHT22;11959;49.418;8.728;2024-03-23T02:11:44;10.10;99.90
23562;DHT22;11959;49.418;8.728;2024-03-23T02:14:09;10.10;99.90
23562;DHT22;11959;49.418;8.728;2024-03-23T02:16:35;10.20;99.90
23562;DHT22;11959;49.418;8.728;2024-03-23T02:19:01;10.10;99.90
23562;DHT22;11959;49.418;8.728;2024-03-23T02:21:26;10.30;99.90
23562;DHT22;11959;49.418;8.728;2024-03-23T02:23:53;10.20;99.90
23562;DHT22;11959;49.418;8.728;2024-03-23T02:26:18;10.20;99.90
23562;DHT22;11959;49.418;8.728;2024-03-23T02:28:44;10.20;99.90
23562;DHT22;11959;49.418;8.728;2024-03-23T02:31:10;10.20;99.90
23562;DHT22;11959;49.418;8.728;2024-03-23T02:33:36;10.20;99.90
23562;DHT22;11959;49.418;8.728;2024-03-23T02:36:03;10.20;99.90
23562;DHT22;11959;49.418;8.728;2024-03-23T02:38:29;10.20;99.90
23562;DHT22;11959;49.418;8.728;2024-03-23T02:40:55;10.20;99.90
23562;DHT22;11959;49.418;8.728;2024-03-23T02:43:26;10.30;99.90
23562;DHT22;11959;49.418;8.728;2024-03-23T02:45:51;10.30;99.90
23562;DHT22;11959;49.418;8.728;2024-03-23T02:48:17;10.30;99.90
23562;DHT22;11959;49.418;8.728;2024-03-23T02:50:43;10.30;99.90
23562;DHT22;11959;49.418;8.728;2024-03-23T02:53:11;10.30;99.90
23562;DHT22;11959;49.418;8.728;2024-03-23T02:55:37;10.30;99.90
23562;DHT22;11959;49.418;8.728;2024-03-23T02:58:03;10.40;99.90
23562;DHT22;11959;49.418;8.728;2024-03-23T03:00:29;10.40;99.90
23562;DHT22;11959;49.418;8.728;2024-03-23T03:02:54;10.60;99.90
23562;DHT22;11959;49.418;8.728;2024-03-23T03:05:20;10.70;99.90
23562;DHT22;11959;49.418;8.728;2024-03-23T03:07:46;10.70;99.90
23562;DHT22;11959;49.418;8.728;2024-03-23T03:10:12;11.00;99.90
23562;DHT22;11959;49.418;8.728;2024-03-23T03:12:37;11.00;99.90
23562;DHT22;11959;49.418;8.728;2024-03-23T03:15:06;11.10;99.90
23562;DHT22;11959;49.418;8.728;2024-03-23T03:17:33;11.30;99.90
23562;DHT22;11959;49.418;8.728;2024-03-23T03:19:59;11.40;99.90
23562;DHT22;11959;49.418;8.728;2024-03-23T03:22:25;11.60;99.90
23562;DHT22;11959;49.418;8.728;2024-03-23T03:24:50;11.90;99.90
23562;DHT22;11959;49.418;8.728;2024-03-23T03:27:16;11.90;99.90
23562;DHT22;11959;49.418;8.728;2024-03-23T03:29:42;12.00;99.90
23562;DHT22;11959;49.418;8.728;2024-03-23T03:32:07;12.00;99.90
23562;DHT22;11959;49.418;8.728;2024-03-23T03:34:33;12.10;99.90
23562;DHT22;11959;49.418;8.728;2024-03-23T03:37:00;12.20;99.90
23562;DHT22;11959;49.418;8.728;2024-03-23T03:39:26;12.20;99.90
23562;DHT22;11959;49.418;8.728;2024-03-23T03:41:52;12.30;99.90
23562;DHT22;11959;49.418;8.728;2024-03-23T03:44:17;12.30;99.90
23562;DHT22;11959;49.418;8.728;2024-03-23T03:46:43;12.30;99.90
23562;DHT22;11959;49.418;8.728;2024-03-23T03:49:09;12.40;99.90
23562;DHT22;11959;49.418;8.728;2024-03-23T03:51:35;12.40;99.90
23562;DHT22;11959;49.418;8.728;2024-03-23T03:54:00;12.30;99.90
23562;DHT22;11959;49.418;8.728;2024-03-23T03:56:26;12.30;99.90
23562;DHT22;11959;49.418;8.728;2024-03-23T03:58:53;12.20;99.90
23562;DHT22;11959;49.418;8.728;2024-03-23T04:01:18;12.20;99.90
23562;DHT22;11959;49.418;8.728;2024-03-23T04:03:44;12.20;99.90
23562;DHT22;11959;49.418;8.728;2024-03-23T04:06:10;12.20;99.90
23562;DHT22;11959;49.418;8.728;2024-03-23T04:08:35;12.20;99.90
23562;DHT22;11959;49.418;8.728;2024-03-23T04:11:02;12.10;99.90
23562;DHT22;11959;49.418;8.728;2024-03-23T04:13:27;12.10;99.90
23562;DHT22;11959;49.418;8.728;2024-03-23T04:15:56;12.00;99.90
23562;DHT22;11959;49.418;8.728;2024-03-23T04:18:22;12.00;99.90
23562;DHT22;11959;49.418;8.728;2024-03-23T04:20:51;12.10;99.90
23562;DHT22;11959;49.418;8.728;2024-03-23T04:23:17;12.10;99.90
23562;DHT22;11959;49.418;8.728;2024-03-23T04:25:43;12.20;99.90
23562;DHT22;11959;49.418;8.728;2024-03-23T04:28:09;12.20;99.90
23562;DHT22;11959;49.418;8.728;2024-03-23T04:30:34;12.30;99.90
23562;DHT22;11959;49.418;8.728;2024-03-23T04:33:00;12.20;99.90
23562;DHT22;11959;49.418;8.728;2024-03-23T04:35:26;12.40;99.90
23562;DHT22;11959;49.418;8.728;2024-03-23T04:37:53;12.40;99.90
23562;DHT22;11959;49.418;8.728;2024-03-23T04:40:19;12.40;99.90
23562;DHT22;11959;49.418;8.728;2024-03-23T04:42:44;12.30;99.90
23562;DHT22;11959;49.418;8.728;2024-03-23T04:45:10;12.30;99.90
23562;DHT22;11959;49.418;8.728;2024-03-23T04:47:37;12.40;99.90
23562;DHT22;11959;49.418;8.728;2024-03-23T04:50:03;12.40;99.90
23562;DHT22;11959;49.418;8.728;2024-03-23T04:52:29;12.40;99.90
23562;DHT22;11959;49.418;8.728;2024-03-23T04:54:55;12.40;99.90
23562;DHT22;11959;49.418;8.728;2024-03-23T04:57:21;12.30;99.90
23562;DHT22;11959;49.418;8.728;2024-03-23T04:59:47;12.20;99.90
23562;DHT22;11959;49.418;8.728;2024-03-23T05:02:15;12.30;99.90
23562;DHT22;11959;49.418;8.728;2024-03-23T05:04:41;12.20;99.90
23562;DHT22;11959;49.418;8.728;2024-03-23T05:07:07;12.20;99.90
23562;DHT22;11959;49.418;8.728;2024-03-23T05:09:32;12.20;99.90
23562;DHT22;11959;49.418;8.728;2024-03-23T05:11:59;12.20;99.90
23562;DHT22;11959;49.418;8.728;2024-03-23T05:14:28;12.20;99.90
23562;DHT22;11959;49.418;8.728;2024-03-23T05:16:54;12.30;99.90
23562;DHT22;11959;49.418;8.728;2024-03-23T05:19:20;12.30;99.90
23562;DHT22;11959;49.418;8.728;2024-03-23T05:21:45;12.30;99.90
23562;DHT22;11959;49.418;8.728;2024-03-23T05:24:11;12.30;99.90
23562;DHT22;11959;49.418;8.728;2024-03-23T05:26:37;12.20;99.90
23562;DHT22;11959;49.418;8.728;2024-03-23T05:29:03;12.20;99.90
23562;DHT22;11959;49.418;8.728;2024-03-23T05:31:30;12.10;99.90
23562;DHT22;11959;49.418;8.728;2024-03-23T05:33:56;12.00;99.90
23562;DHT22;11959;49.418;8.728;2024-03-23T05:36:22;11.90;99.90
23562;DHT22;11959;49.418;8.728;2024-03-23T05:38:49;11.80;99.90
23562;DHT22;11959;49.418;8.728;2024-03-23T05:41:15;11.70;99.90
23562;DHT22;11959;49.418;8.728;2024-03-23T05:43:41;11.60;99.90
23562;DHT22;11959;49.418;8.728;2024-03-23T05:46:06;11.40;99.90
23562;DHT22;11959;49.418;8.728;2024-03-23T05:48:33;11.30;99.90
23562;DHT22;11959;49.418;8.728;2024-03-23T05:50:59;11.20;99.90
23562;DHT22;11959;49.418;8.728;2024-03-23T05:53:25;11.00;99.90
23562;DHT22;11959;49.418;8.728;2024-03-23T05:55:51;10.80;99.90
23562;DHT22;11959;49.418;8.728;2024-03-23T05:58:19;10.60;99.90
23562;DHT22;11959;49.418;8.728;2024-03-23T06:00:47;10.40;99.90
23562;DHT22;11959;49.418;8.728;2024-03-23T06:03:13;10.10;99.90
23562;DHT22;11959;49.418;8.728;2024-03-23T06:05:39;10.00;99.90
23562;DHT22;11959;49.418;8.728;2024-03-23T06:08:05;9.90;99.90
23562;DHT22;11959;49.418;8.728;2024-03-23T06:10:31;9.80;99.90
23562;DHT22;11959;49.418;8.728;2024-03-23T06:12:57;9.70;99.90
23562;DHT22;11959;49.418;8.728;2024-03-23T06:15:25;9.50;99.90
23562;DHT22;11959;49.418;8.728;2024-03-23T06:17:52;9.50;99.90
23562;DHT22;11959;49.418;8.728;2024-03-23T06:20:18;9.50;99.90
23562;DHT22;11959;49.418;8.728;2024-03-23T06:22:43;9.40;99.90
23562;DHT22;11959;49.418;8.728;2024-03-23T06:25:09;9.40;99.90
23562;DHT22;11959;49.418;8.728;2024-03-23T06:27:35;9.30;99.90
23562;DHT22;11959;49.418;8.728;2024-03-23T06:30:00;9.30;99.90
23562;DHT22;11959;49.418;8.728;2024-03-23T06:32:28;9.20;99.90
23562;DHT22;11959;49.418;8.728;2024-03-23T06:34:54;9.10;99.90
23562;DHT22;11959;49.418;8.728;2024-03-23T06:37:20;9.10;99.90
23562;DHT22;11959;49.418;8.728;2024-03-23T06:39:46;9.10;99.90
23562;DHT22;11959;49.418;8.728;2024-03-23T06:42:12;9.00;99.90
23562;DHT22;11959;49.418;8.728;2024-03-23T06:44:37;9.00;99.90
23562;DHT22;11959;49.418;8.728;2024-03-23T06:47:03;9.00;99.90
23562;DHT22;11959;49.418;8.728;2024-03-23T06:49:29;9.00;99.90
23562;DHT22;11959;49.418;8.728;2024-03-23T06:51:54;9.00;99.90
23562;DHT22;11959;49.418;8.728;2024-03-23T06:54:20;8.90;99.90
23562;DHT22;11959;49.418;8.728;2024-03-23T06:56:46;9.00;99.90
23562;DHT22;11959;49.418;8.728;2024-03-23T06:59:12;9.00;99.90
23562;DHT22;11959;49.418;8.728;2024-03-23T07:01:38;9.00;99.90
23562;DHT22;11959;49.418;8.728;2024-03-23T07:04:04;9.00;99.90
23562;DHT22;11959;49.418;8.728;2024-03-23T07:06:30;9.00;99.90
23562;DHT22;11959;49.418;8.728;2024-03-23T07:08:56;9.00;99.90
23562;DHT22;11959;49.418;8.728;2024-03-23T07:11:22;9.00;99.90
23562;DHT22;11959;49.418;8.728;2024-03-23T07:13:52;9.00;99.90
23562;DHT22;11959;49.418;8.728;2024-03-23T07:16:18;9.00;99.90
23562;DHT22;11959;49.418;8.728;2024-03-23T07:18:43;8.90;99.90
23562;DHT22;11959;49.418;8.728;2024-03-23T07:21:09;9.00;99.90
23562;DHT22;11959;49.418;8.728;2024-03-23T07:23:35;9.00;99.90
23562;DHT22;11959;49.418;8.728;2024-03-23T07:26:03;9.00;99.90
23562;DHT22;11959;49.418;8.728;2024-03-23T07:28:32;8.90;99.90
23562;DHT22;11959;49.418;8.728;2024-03-23T07:31:13;8.90;99.90
23562;DHT22;11959;49.418;8.728;2024-03-23T07:33:48;8.90;99.90
23562;DHT22;11959;49.418;8.728;2024-03-23T07:36:14;8.80;99.90
23562;DHT22;11959;49.418;8.728;2024-03-23T07:38:41;8.70;99.90
23562;DHT22;11959;49.418;8.728;2024-03-23T07:41:11;8.70;99.90
23562;DHT22;11959;49.418;8.728;2024-03-23T07:43:38;8.60;99.90
23562;DHT22;11959;49.418;8.728;2024-03-23T07:46:04;8.60;99.90
23562;DHT22;11959;49.418;8.728;2024-03-23T07:48:30;8.60;99.90
23562;DHT22;11959;49.418;8.728;2024-03-23T07:53:30;8.70;99.90
23562;DHT22;11959;49.418;8.728;2024-03-23T07:55:57;8.80;99.90
23562;DHT22;11959;49.418;8.728;2024-03-23T07:58:23;8.70;99.90
23562;DHT22;11959;49.418;8.728;2024-03-23T08:00:49;8.70;99.90
23562;DHT22;11959;49.418;8.728;2024-03-23T08:03:15;8.60;99.90
23562;DHT22;11959;49.418;8.728;2024-03-23T08:05:40;8.70;99.90
23562;DHT22;11959;49.418;8.728;2024-03-23T08:08:06;8.70;99.90
23562;DHT22;11959;49.418;8.728;2024-03-23T08:10:32;8.60;99.90
23562;DHT22;11959;49.418;8.728;2024-03-23T08:12:58;8.70;99.90
23562;DHT22;11959;49.418;8.728;2024-03-23T08:15:24;8.70;99.90
23562;DHT22;11959;49.418;8.728;2024-03-23T08:17:50;8.70;99.90
23562;DHT22;11959;49.418;8.728;2024-03-23T08:20:15;8.60;99.90
23562;DHT22;11959;49.418;8.728;2024-03-23T08:22:41;8.70;99.90
23562;DHT22;11959;49.418;8.728;2024-03-23T08:25:07;8.70;99.90
23562;DHT22;11959;49.418;8.728;2024-03-23T08:27:32;8.70;99.90
23562;DHT22;11959;49.418;8.728;2024-03-23T08:29:58;8.80;99.90
23562;DHT22;11959;49.418;8.728;2024-03-23T08:32:24;8.80;99.90
23562;DHT22;11959;49.418;8.728;2024-03-23T08:34:50;8.80;99.90
23562;DHT22;11959;49.418;8.728;2024-03-23T08:37:15;8.90;99.90
23562;DHT22;11959;49.418;8.728;2024-03-23T08:39:43;8.90;99.90
23562;DHT22;11959;49.418;8.728;2024-03-23T08:42:09;8.90;99.90
23562;DHT22;11959;49.418;8.728;2024-03-23T08:44:34;8.90;99.90
23562;DHT22;11959;49.418;8.728;2024-03-23T08:47:01;9.00;99.90
23562;DHT22;11959;49.418;8.728;2024-03-23T08:49:27;9.10;99.90
23562;DHT22;11959;49.418;8.728;2024-03-23T08:51:53;9.20;99.90
23562;DHT22;11959;49.418;8.728;2024-03-23T08:54:19;9.30;99.90
23562;DHT22;11959;49.418;8.728;2024-03-23T08:56:46;9.30;99.90
23562;DHT22;11959;49.418;8.728;2024-03-23T08:59:11;9.40;99.90
23562;DHT22;11959;49.418;8.728;2024-03-23T09:01:37;9.30;99.90
23562;DHT22;11959;49.418;8.728;2024-03-23T09:04:03;9.30;99.90
23562;DHT22;11959;49.418;8.728;2024-03-23T09:06:29;9.30;99.90
23562;DHT22;11959;49.418;8.728;2024-03-23T09:08:55;9.30;99.90
23562;DHT22;11959;49.418;8.728;2024-03-23T09:11:21;9.40;99.90
23562;DHT22;11959;49.418;8.728;2024-03-23T09:13:46;9.40;99.90
23562;DHT22;11959;49.418;8.728;2024-03-23T09:16:12;9.50;99.90
23562;DHT22;11959;49.418;8.728;2024-03-23T09:18:38;9.40;99.90
23562;DHT22;11959;49.418;8.728;2024-03-23T09:21:06;9.40;99.90
23562;DHT22;11959;49.418;8.728;2024-03-23T09:23:36;9.40;99.90
23562;DHT22;11959;49.418;8.728;2024-03-23T09:26:05;9.40;99.90
23562;DHT22;11959;49.418;8.728;2024-03-23T09:28:33;9.40;99.90
23562;DHT22;11959;49.418;8.728;2024-03-23T09:31:05;9.50;99.90
23562;DHT22;11959;49.418;8.728;2024-03-23T09:33:32;9.70;99.90
23562;DHT22;11959;49.418;8.728;2024-03-23T09:36:03;9.60;99.90
23562;DHT22;11959;49.418;8.728;2024-03-23T09:38:29;9.70;99.90
23562;DHT22;11959;49.418;8.728;2024-03-23T09:40:54;9.70;99.90
23562;DHT22;11959;49.418;8.728;2024-03-23T09:43:20;9.80;99.90
23562;DHT22;11959;49.418;8.728;2024-03-23T09:45:46;9.70;99.90
23562;DHT22;11959;49.418;8.728;2024-03-23T09:48:12;9.60;99.90
23562;DHT22;11959;49.418;8.728;2024-03-23T09:50:43;9.60;99.90
23562;DHT22;11959;49.418;8.728;2024-03-23T09:53:10;9.50;99.90
23562;DHT22;11959;49.418;8.728;2024-03-23T09:55:40;9.40;99.90
23562;DHT22;11959;49.418;8.728;2024-03-23T09:58:06;9.40;99.90
23562;DHT22;11959;49.418;8.728;2024-03-23T10:00:35;9.40;99.90
23562;DHT22;11959;49.418;8.728;2024-03-23T10:03:01;9.40;99.90
23562;DHT22;11959;49.418;8.728;2024-03-23T10:05:28;9.40;99.90
23562;DHT22;11959;49.418;8.728;2024-03-23T10:07:54;9.40;99.90
23562;DHT22;11959;49.418;8.728;2024-03-23T10:10:20;9.40;99.90
23562;DHT22;11959;49.418;8.728;2024-03-23T10:12:49;9.40;99.90
23562;DHT22;11959;49.418;8.728;2024-03-23T10:15:20;9.40;99.90
23562;DHT22;11959;49.418;8.728;2024-03-23T10:17:46;9.40;99.90
23562;DHT22;11959;49.418;8.728;2024-03-23T10:20:12;9.50;99.90
23562;DHT22;11959;49.418;8.728;2024-03-23T10:22:38;9.60;99.90
23562;DHT22;11959;49.418;8.728;2024-03-23T10:25:09;9.70;99.90
23562;DHT22;11959;49.418;8.728;2024-03-23T10:27:34;9.80;99.90
23562;DHT22;11959;49.418;8.728;2024-03-23T10:30:14;10.00;99.90
23562;DHT22;11959;49.418;8.728;2024-03-23T10:32:42;10.10;99.90
23562;DHT22;11959;49.418;8.728;2024-03-23T10:35:19;10.20;99.90
23562;DHT22;11959;49.418;8.728;2024-03-23T10:37:47;10.30;99.90
23562;DHT22;11959;49.418;8.728;2024-03-23T10:40:15;10.30;99.90
23562;DHT22;11959;49.418;8.728;2024-03-23T10:42:42;10.50;99.90
23562;DHT22;11959;49.418;8.728;2024-03-23T10:45:08;10.50;99.90
23562;DHT22;11959;49.418;8.728;2024-03-23T10:47:37;10.60;99.90
23562;DHT22;11959;49.418;8.728;2024-03-23T10:50:06;10.60;99.90
23562;DHT22;11959;49.418;8.728;2024-03-23T10:52:35;10.70;99.90
23562;DHT22;11959;49.418;8.728;2024-03-23T10:55:05;10.70;99.90
23562;DHT22;11959;49.418;8.728;2024-03-23T10:57:41;10.80;99.90
23562;DHT22;11959;49.418;8.728;2024-03-23T11:00:08;10.90;99.90
23562;DHT22;11959;49.418;8.728;2024-03-23T11:02:36;11.10;99.90
23562;DHT22;11959;49.418;8.728;2024-03-23T11:05:01;11.20;99.90
23562;DHT22;11959;49.418;8.728;2024-03-23T11:07:30;11.20;99.90
23562;DHT22;11959;49.418;8.728;2024-03-23T11:10:00;11.20;99.90
23562;DHT22;11959;49.418;8.728;2024-03-23T11:12:29;11.30;99.90
23562;DHT22;11959;49.418;8.728;2024-03-23T11:17:23;11.40;99.90
23562;DHT22;11959;49.418;8.728;2024-03-23T11:22:43;11.40;99.90
23562;DHT22;11959;49.418;8.728;2024-03-23T11:25:20;11.50;99.90
23562;DHT22;11959;49.418;8.728;2024-03-23T11:27:47;11.50;99.60
23562;DHT22;11959;49.418;8.728;2024-03-23T11:30:17;11.50;99.60
23562;DHT22;11959;49.418;8.728;2024-03-23T11:32:47;11.40;99.20
23562;DHT22;11959;49.418;8.728;2024-03-23T11:38:10;11.50;99.10
23562;DHT22;11959;49.418;8.728;2024-03-23T11:40:37;11.70;98.80
23562;DHT22;11959;49.418;8.728;2024-03-23T11:43:07;11.80;98.70
23562;DHT22;11959;49.418;8.728;2024-03-23T11:45:35;11.90;98.60
23562;DHT22;11959;49.418;8.728;2024-03-23T11:48:08;11.90;99.30
23562;DHT22;11959;49.418;8.728;2024-03-23T11:50:38;12.00;98.50
23562;DHT22;11959;49.418;8.728;2024-03-23T11:53:26;11.90;97.60
23562;DHT22;11959;49.418;8.728;2024-03-23T11:55:59;11.70;98.00
23562;DHT22;11959;49.418;8.728;2024-03-23T11:58:27;11.80;98.00
23562;DHT22;11959;49.418;8.728;2024-03-23T12:01:03;11.90;98.50
23562;DHT22;11959;49.418;8.728;2024-03-23T12:03:29;11.90;98.30
23562;DHT22;11959;49.418;8.728;2024-03-23T12:05:57;11.90;98.60
23562;DHT22;11959;49.418;8.728;2024-03-23T12:08:28;11.70;99.90
23562;DHT22;11959;49.418;8.728;2024-03-23T12:11:09;11.10;99.90
23562;DHT22;11959;49.418;8.728;2024-03-23T12:13:37;10.40;99.90
23562;DHT22;11959;49.418;8.728;2024-03-23T12:16:21;10.00;99.90
23562;DHT22;11959;49.418;8.728;2024-03-23T12:18:50;9.10;99.90
23562;DHT22;11959;49.418;8.728;2024-03-23T12:21:18;8.50;99.90
23562;DHT22;11959;49.418;8.728;2024-03-23T12:23:44;8.30;99.90
23562;DHT22;11959;49.418;8.728;2024-03-23T12:26:12;8.10;99.90
23562;DHT22;11959;49.418;8.728;2024-03-23T12:28:38;7.80;99.90
23562;DHT22;11959;49.418;8.728;2024-03-23T12:31:04;7.80;99.90
23562;DHT22;11959;49.418;8.728;2024-03-23T12:33:31;7.80;99.90
23562;DHT22;11959;49.418;8.728;2024-03-23T12:35:56;7.80;99.90
23562;DHT22;11959;49.418;8.728;2024-03-23T12:38:22;7.80;99.90
23562;DHT22;11959;49.418;8.728;2024-03-23T12:40:49;7.70;99.90
23562;DHT22;11959;49.418;8.728;2024-03-23T12:43:15;7.70;99.90
23562;DHT22;11959;49.418;8.728;2024-03-23T12:45:41;7.80;99.90
23562;DHT22;11959;49.418;8.728;2024-03-23T12:48:07;7.80;99.90
23562;DHT22;11959;49.418;8.728;2024-03-23T12:50:33;7.80;99.90
23562;DHT22;11959;49.418;8.728;2024-03-23T12:52:58;7.90;99.90
23562;DHT22;11959;49.418;8.728;2024-03-23T12:55:24;8.00;99.90
23562;DHT22;11959;49.418;8.728;2024-03-23T12:57:49;8.00;99.90
23562;DHT22;11959;49.418;8.728;2024-03-23T13:00:15;8.00;99.90
23562;DHT22;11959;49.418;8.728;2024-03-23T13:02:42;8.00;99.90
23562;DHT22;11959;49.418;8.728;2024-03-23T13:05:08;8.10;99.90
23562;DHT22;11959;49.418;8.728;2024-03-23T13:07:34;8.10;99.90
23562;DHT22;11959;49.418;8.728;2024-03-23T13:10:00;8.10;99.90
23562;DHT22;11959;49.418;8.728;2024-03-23T13:12:27;8.20;99.90
23562;DHT22;11959;49.418;8.728;2024-03-23T13:14:53;8.30;99.90
23562;DHT22;11959;49.418;8.728;2024-03-23T13:17:18;8.20;99.90
23562;DHT22;11959;49.418;8.728;2024-03-23T13:19:44;8.20;99.90
23562;DHT22;11959;49.418;8.728;2024-03-23T13:22:10;8.00;99.90
23562;DHT22;11959;49.418;8.728;2024-03-23T13:24:38;7.90;99.90
23562;DHT22;11959;49.418;8.728;2024-03-23T13:27:04;7.60;99.90
23562;DHT22;11959;49.418;8.728;2024-03-23T13:29:33;7.40;99.90
23562;DHT22;11959;49.418;8.728;2024-03-23T13:32:00;7.30;99.90
23562;DHT22;11959;49.418;8.728;2024-03-23T13:34:26;7.30;99.90
23562;DHT22;11959;49.418;8.728;2024-03-23T13:36:51;7.20;99.90
23562;DHT22;11959;49.418;8.728;2024-03-23T13:39:17;7.20;99.90
23562;DHT22;11959;49.418;8.728;2024-03-23T13:41:44;7.30;99.90
23562;DHT22;11959;49.418;8.728;2024-03-23T13:44:11;7.40;99.90
23562;DHT22;11959;49.418;8.728;2024-03-23T13:46:38;7.50;99.90
23562;DHT22;11959;49.418;8.728;2024-03-23T13:49:04;7.60;99.90
23562;DHT22;11959;49.418;8.728;2024-03-23T13:51:30;7.70;99.90
23562;DHT22;11959;49.418;8.728;2024-03-23T13:53:56;7.80;99.90
23562;DHT22;11959;49.418;8.728;2024-03-23T13:56:23;7.90;99.90
23562;DHT22;11959;49.418;8.728;2024-03-23T13:58:48;8.00;99.90
23562;DHT22;11959;49.418;8.728;2024-03-23T14:01:15;8.00;99.90
23562;DHT22;11959;49.418;8.728;2024-03-23T14:03:42;8.00;99.90
23562;DHT22;11959;49.418;8.728;2024-03-23T14:06:08;8.10;99.90
23562;DHT22;11959;49.418;8.728;2024-03-23T14:08:35;8.30;99.90
23562;DHT22;11959;49.418;8.728;2024-03-23T14:11:02;8.30;99.90
23562;DHT22;11959;49.418;8.728;2024-03-23T14:13:29;8.40;99.90
23562;DHT22;11959;49.418;8.728;2024-03-23T14:15:54;8.40;99.90
23562;DHT22;11959;49.418;8.728;2024-03-23T14:18:20;8.50;99.90
23562;DHT22;11959;49.418;8.728;2024-03-23T14:20:48;8.50;99.90
23562;DHT22;11959;49.418;8.728;2024-03-23T14:23:14;8.50;99.90
23562;DHT22;11959;49.418;8.728;2024-03-23T14:25:39;8.60;99.90
23562;DHT22;11959;49.418;8.728;2024-03-23T14:28:05;8.60;99.90
23562;DHT22;11959;49.418;8.728;2024-03-23T14:30:31;8.70;99.90
23562;DHT22;11959;49.418;8.728;2024-03-23T14:32:57;8.90;99.90
23562;DHT22;11959;49.418;8.728;2024-03-23T14:35:22;9.00;99.90
23562;DHT22;11959;49.418;8.728;2024-03-23T14:37:49;9.10;99.90
23562;DHT22;11959;49.418;8.728;2024-03-23T14:40:14;9.10;99.90
23562;DHT22;11959;49.418;8.728;2024-03-23T14:42:40;9.20;99.90
23562;DHT22;11959;49.418;8.728;2024-03-23T14:45:07;9.20;99.90
23562;DHT22;11959;49.418;8.728;2024-03-23T14:47:33;9.30;99.90
23562;DHT22;11959;49.418;8.728;2024-03-23T14:49:58;9.30;99.90
23562;DHT22;11959;49.418;8.728;2024-03-23T14:52:24;9.40;99.90
23562;DHT22;11959;49.418;8.728;2024-03-23T14:54:50;9.30;99.90
23562;DHT22;11959;49.418;8.728;2024-03-23T14:57:15;9.40;99.90
23562;DHT22;11959;49.418;8.728;2024-03-23T14:59:41;9.50;99.90
23562;DHT22;11959;49.418;8.728;2024-03-23T15:02:07;9.70;99.90
23562;DHT22;11959;49.418;8.728;2024-03-23T15:04:33;9.80;99.90
23562;DHT22;11959;49.418;8.728;2024-03-23T15:07:00;10.00;99.90
23562;DHT22;11959;49.418;8.728;2024-03-23T15:09:25;10.00;99.90
23562;DHT22;11959;49.418;8.728;2024-03-23T15:11:51;10.10;99.90
23562;DHT22;11959;49.418;8.728;2024-03-23T15:14:16;10.00;99.90
23562;DHT22;11959;49.418;8.728;2024-03-23T15:16:42;10.00;99.90
23562;DHT22;11959;49.418;8.728;2024-03-23T15:19:08;9.90;99.90
23562;DHT22;11959;49.418;8.728;2024-03-23T15:21:34;9.90;99.90
23562;DHT22;11959;49.418;8.728;2024-03-23T15:24:00;9.80;99.90
23562;DHT22;11959;49.418;8.728;2024-03-23T15:26:26;9.70;99.90
23562;DHT22;11959;49.418;8.728;2024-03-23T15:28:52;9.70;99.90
23562;DHT22;11959;49.418;8.728;2024-03-23T15:31:24;9.70;99.90
23562;DHT22;11959;49.418;8.728;2024-03-23T15:33:50;9.70;99.90
23562;DHT22;11959;49.418;8.728;2024-03-23T15:36:16;9.60;99.90
23562;DHT22;11959;49.418;8.728;2024-03-23T15:38:42;9.50;99.90
23562;DHT22;11959;49.418;8.728;2024-03-23T15:41:09;9.50;99.90
23562;DHT22;11959;49.418;8.728;2024-03-23T15:43:34;9.50;99.90
23562;DHT22;11959;49.418;8.728;2024-03-23T15:46:03;9.40;99.90
23562;DHT22;11959;49.418;8.728;2024-03-23T15:48:30;9.50;99.90
23562;DHT22;11959;49.418;8.728;2024-03-23T15:51:01;9.50;99.90
23562;DHT22;11959;49.418;8.728;2024-03-23T15:53:28;9.50;99.90
23562;DHT22;11959;49.418;8.728;2024-03-23T15:55:57;9.40;99.90
23562;DHT22;11959;49.418;8.728;2024-03-23T15:58:23;9.40;99.90
23562;DHT22;11959;49.418;8.728;2024-03-23T16:01:00;9.40;99.90
23562;DHT22;11959;49.418;8.728;2024-03-23T16:03:27;9.40;99.90
23562;DHT22;11959;49.418;8.728;2024-03-23T16:05:58;8.90;99.90
23562;DHT22;11959;49.418;8.728;2024-03-23T16:08:25;8.30;99.90
23562;DHT22;11959;49.418;8.728;2024-03-23T16:10:51;7.90;99.90
23562;DHT22;11959;49.418;8.728;2024-03-23T16:13:17;7.50;99.90
23562;DHT22;11959;49.418;8.728;2024-03-23T16:15:57;7.20;99.90
23562;DHT22;11959;49.418;8.728;2024-03-23T16:18:24;7.10;99.90
23562;DHT22;11959;49.418;8.728;2024-03-23T16:20:56;6.90;99.90
23562;DHT22;11959;49.418;8.728;2024-03-23T16:23:22;6.80;99.90
23562;DHT22;11959;49.418;8.728;2024-03-23T16:25:53;6.90;99.90
23562;DHT22;11959;49.418;8.728;2024-03-23T16:28:29;7.00;99.90
23562;DHT22;11959;49.418;8.728;2024-03-23T16:31:00;7.10;99.90
23562;DHT22;11959;49.418;8.728;2024-03-23T16:33:26;7.10;99.90
23562;DHT22;11959;49.418;8.728;2024-03-23T16:36:03;7.10;99.90
23562;DHT22;11959;49.418;8.728;2024-03-23T16:38:36;7.10;99.90
23562;DHT22;11959;49.418;8.728;2024-03-23T16:41:06;7.10;99.90
23562;DHT22;11959;49.418;8.728;2024-03-23T16:43:36;7.10;99.90